Time;durP1;ratioP1;P1;durP2;ratioP2;P2;SDS_P1;SDS_P2;PMS_P1;PMS_P2;Temp;Humidity;BMP_temperature;BMP_pressure;BME280_temperature;BME280_humidity;BME280_pressure;Samples;Min_cycle;Max_cycle;Signal;HPM_P1;HPM_P2
2020/12/19 00:00:56;;;;;;;41.40;19.98;;;3.20;99.90;;;;;;5010469;28;20026;-81
2020/12/19 00:03:22;;;;;;;42.20;19.45;;;3.20;99.90;;;;;;5015031;28;20037;-80
2020/12/19 00:05:48;;;;;;;42.53;19.05;;;3.20;99.90;;;;;;5007310;28;20022;-80
2020/12/19 00:08:14;;;;;;;43.83;19.23;;;3.20;99.90;;;;;;4996434;28;20034;-80
2020/12/19 00:10:39;;;;;;;40.80;19.42;;;3.20;99.90;;;;;;4995933;28;20464;-81
2020/12/19 00:13:05;;;;;;;43.60;19.80;;;3.20;99.90;;;;;;4993583;28;20042;-72
2020/12/19 00:15:31;;;;;;;42.95;19.95;;;3.20;99.90;;;;;;4975788;28;20027;-71
2020/12/19 00:17:56;;;;;;;43.42;19.95;;;3.20;99.90;;;;;;4993611;28;20018;-72
2020/12/19 00:20:22;;;;;;;38.42;18.65;;;3.20;99.90;;;;;;4993431;28;20027;-72
2020/12/19 00:22:48;;;;;;;43.20;19.15;;;3.20;99.90;;;;;;4993271;28;20026;-72
2020/12/19 00:25:14;;;;;;;39.58;19.02;;;3.20;99.90;;;;;;4993275;28;20097;-71
2020/12/19 00:27:40;;;;;;;38.78;18.90;;;3.20;99.90;;;;;;4993064;28;20026;-71
2020/12/19 00:30:06;;;;;;;39.65;19.15;;;3.20;99.90;;;;;;4992893;28;20039;-71
2020/12/19 00:32:33;;;;;;;41.13;20.20;;;3.20;99.90;;;;;;4992996;28;20026;-70
2020/12/19 00:34:59;;;;;;;43.75;18.88;;;3.20;99.90;;;;;;4992995;28;20472;-70
2020/12/19 00:37:25;;;;;;;41.63;18.48;;;3.20;99.90;;;;;;4992855;28;20033;-69
2020/12/19 00:39:51;;;;;;;38.47;18.05;;;3.20;99.90;;;;;;4992815;28;20157;-70
2020/12/19 00:42:17;;;;;;;40.22;19.08;;;3.20;99.90;;;;;;4992844;28;20019;-70
2020/12/19 00:44:43;;;;;;;40.50;19.75;;;3.20;99.90;;;;;;4994064;28;20026;-80
2020/12/19 00:47:09;;;;;;;38.45;17.95;;;3.20;99.90;;;;;;4994091;28;20128;-80
2020/12/19 00:49:35;;;;;;;41.67;19.33;;;3.20;99.90;;;;;;4993976;28;20030;-80
2020/12/19 00:52:01;;;;;;;42.97;18.38;;;3.20;99.90;;;;;;4993937;28;20034;-80
2020/12/19 00:54:27;;;;;;;42.75;18.90;;;3.20;99.90;;;;;;4976344;28;20026;-80
2020/12/19 00:56:52;;;;;;;42.42;18.77;;;3.20;99.90;;;;;;4994000;28;20048;-81
2020/12/19 00:59:18;;;;;;;38.67;18.17;;;3.20;99.90;;;;;;4994012;28;20027;-80
2020/12/19 01:01:44;;;;;;;36.13;17.63;;;3.20;99.90;;;;;;4991992;28;20093;-80
2020/12/19 01:04:10;;;;;;;41.90;18.48;;;3.20;99.90;;;;;;4994028;28;20030;-80
2020/12/19 01:06:35;;;;;;;41.83;19.10;;;3.20;99.90;;;;;;4993747;28;20125;-81
2020/12/19 01:09:03;;;;;;;36.63;18.08;;;3.20;99.90;;;;;;4994056;28;20061;-80
2020/12/19 01:11:30;;;;;;;40.13;18.63;;;3.20;99.90;;;;;;4992491;28;20026;-72
2020/12/19 01:13:56;;;;;;;46.38;20.02;;;3.20;99.90;;;;;;4992486;28;21009;-72
2020/12/19 01:16:24;;;;;;;42.50;19.80;;;3.20;99.90;;;;;;4992319;28;20113;-72
2020/12/19 01:18:51;;;;;;;43.92;20.73;;;3.20;99.90;;;;;;4992791;28;20912;-72
2020/12/19 01:21:26;;;;;;;38.75;18.90;;;3.20;99.90;;;;;;4992729;28;20026;-72
2020/12/19 01:23:53;;;;;;;41.33;18.15;;;3.20;99.90;;;;;;4991253;28;20472;-72
2020/12/19 01:26:19;;;;;;;40.03;18.13;;;3.20;99.90;;;;;;4992507;28;20030;-72
2020/12/19 01:28:45;;;;;;;45.55;19.50;;;3.20;99.90;;;;;;4992519;28;20019;-71
2020/12/19 01:31:14;;;;;;;40.35;18.35;;;3.20;99.90;;;;;;4992275;28;20065;-71
2020/12/19 01:33:40;;;;;;;40.65;18.98;;;3.20;99.90;;;;;;4992300;28;20035;-71
2020/12/19 01:36:10;;;;;;;44.75;19.15;;;3.20;99.90;;;;;;4992438;28;20030;-71
2020/12/19 01:38:37;;;;;;;42.80;18.65;;;3.20;99.90;;;;;;4991109;28;20041;-71
2020/12/19 01:41:03;;;;;;;43.70;19.27;;;3.20;99.90;;;;;;4990965;28;20049;-71
2020/12/19 01:43:45;;;;;;;49.90;20.55;;;3.20;99.90;;;;;;4992235;28;20384;-71
2020/12/19 01:46:11;;;;;;;;;;;3.20;99.90;;;;;;4992644;28;20049;-71
2020/12/19 01:48:38;;;;;;;45.28;18.88;;;3.20;99.90;;;;;;4992241;28;19991;-72
2020/12/19 01:51:03;;;;;;;47.85;19.70;;;3.20;99.90;;;;;;4992294;28;20033;-71
2020/12/19 01:53:30;;;;;;;51.83;21.13;;;3.20;99.90;;;;;;4992284;28;20806;-71
2020/12/19 01:55:57;;;;;;;49.72;20.58;;;3.20;99.90;;;;;;4992396;28;20030;-71
2020/12/19 01:58:23;;;;;;;48.08;20.15;;;3.20;99.90;;;;;;4992284;28;20022;-71
2020/12/19 02:00:49;;;;;;;51.40;20.27;;;3.20;99.90;;;;;;4992163;28;20026;-71
2020/12/19 02:03:14;;;;;;;47.75;20.17;;;3.20;99.90;;;;;;4990836;28;20022;-71
2020/12/19 02:05:45;;;;;;;50.15;21.08;;;3.20;99.90;;;;;;4991995;28;20396;-71
2020/12/19 02:08:11;;;;;;;48.72;20.67;;;3.30;99.90;;;;;;4992271;28;20082;-71
2020/12/19 02:10:37;;;;;;;48.90;20.35;;;3.30;99.90;;;;;;4992090;28;20682;-71
2020/12/19 02:13:04;;;;;;;50.78;21.85;;;3.30;99.90;;;;;;4993401;28;20563;-71
2020/12/19 02:15:48;;;;;;;44.88;19.00;;;3.30;99.90;;;;;;4995679;28;20029;-81
2020/12/19 02:18:14;;;;;;;43.97;19.63;;;3.30;99.90;;;;;;4996976;28;20097;-80
2020/12/19 02:20:39;;;;;;;48.35;19.60;;;3.30;99.90;;;;;;4996701;28;20118;-81
2020/12/19 02:23:07;;;;;;;42.15;18.90;;;3.30;99.90;;;;;;4995361;28;20472;-81
2020/12/19 02:25:39;;;;;;;44.80;19.95;;;3.30;99.90;;;;;;4996716;28;20022;-82
2020/12/19 02:28:06;;;;;;;49.30;20.42;;;3.30;99.90;;;;;;4996648;28;20026;-81
2020/12/19 02:30:33;;;;;;;47.22;19.80;;;3.30;99.90;;;;;;4995820;28;20105;-72
2020/12/19 02:32:59;;;;;;;41.97;19.20;;;3.30;99.90;;;;;;4995196;28;20019;-72
2020/12/19 02:35:26;;;;;;;36.97;17.10;;;3.30;99.90;;;;;;4995272;28;20085;-72
2020/12/19 02:37:52;;;;;;;41.63;18.77;;;3.30;99.90;;;;;;4995154;28;20106;-71
2020/12/19 02:40:18;;;;;;;40.78;18.73;;;3.30;99.90;;;;;;4995198;28;20027;-71
2020/12/19 02:42:44;;;;;;;44.25;18.48;;;3.30;99.90;;;;;;4995043;28;20081;-72
2020/12/19 02:45:11;;;;;;;41.15;18.58;;;3.30;99.90;;;;;;4993771;28;20388;-72
2020/12/19 02:47:37;;;;;;;36.72;17.33;;;3.30;99.90;;;;;;4993803;28;20132;-72
2020/12/19 02:50:04;;;;;;;41.22;17.75;;;3.30;99.90;;;;;;4995162;28;20034;-72
2020/12/19 02:52:30;;;;;;;43.08;17.65;;;3.30;99.90;;;;;;4994921;28;20037;-71
2020/12/19 02:54:56;;;;;;;43.17;19.17;;;3.30;99.90;;;;;;4994933;28;20030;-71
2020/12/19 02:57:22;;;;;;;39.08;17.00;;;3.30;99.90;;;;;;4994777;28;20102;-71
2020/12/19 02:59:47;;;;;;;39.92;17.30;;;3.30;99.90;;;;;;4994820;28;20030;-72
2020/12/19 03:02:13;;;;;;;41.03;17.98;;;3.30;99.90;;;;;;4994828;28;20097;-71
2020/12/19 03:04:39;;;;;;;39.85;17.73;;;3.30;99.90;;;;;;4994792;28;20045;-72
2020/12/19 03:07:04;;;;;;;39.00;17.17;;;3.30;99.90;;;;;;4994617;28;20022;-72
2020/12/19 03:09:30;;;;;;;35.85;17.02;;;3.30;99.90;;;;;;4994519;28;20451;-69
2020/12/19 03:11:56;;;;;;;37.65;17.17;;;3.30;99.90;;;;;;4994672;28;20376;-72
2020/12/19 03:14:22;;;;;;;38.83;17.13;;;3.30;99.90;;;;;;4994939;28;20074;-80
2020/12/19 03:16:47;;;;;;;38.97;17.48;;;3.30;99.90;;;;;;4994448;28;20030;-80
2020/12/19 03:19:13;;;;;;;36.40;17.42;;;3.30;99.90;;;;;;4995639;28;20023;-80
2020/12/19 03:21:39;;;;;;;36.03;16.90;;;3.30;99.90;;;;;;4995998;28;20535;-80
2020/12/19 03:24:05;;;;;;;37.85;17.00;;;3.30;99.90;;;;;;4995273;28;20022;-80
2020/12/19 03:26:31;;;;;;;39.25;17.95;;;3.30;99.90;;;;;;4995209;28;20488;-80
2020/12/19 03:28:57;;;;;;;37.28;17.58;;;3.40;99.90;;;;;;4995428;28;20101;-80
2020/12/19 03:31:22;;;;;;;37.58;17.90;;;3.40;99.90;;;;;;4995078;28;20422;-81
2020/12/19 03:33:48;;;;;;;36.17;17.30;;;3.40;99.90;;;;;;4977340;28;20101;-81
2020/12/19 03:36:14;;;;;;;34.47;16.35;;;3.40;99.90;;;;;;4994483;28;20388;-81
2020/12/19 03:38:39;;;;;;;32.63;16.15;;;3.40;99.90;;;;;;4994654;28;20035;-80
2020/12/19 03:41:05;;;;;;;31.63;15.60;;;3.40;99.90;;;;;;4977035;28;20026;-80
2020/12/19 03:43:31;;;;;;;32.00;15.63;;;3.40;99.90;;;;;;4994635;28;20034;-80
2020/12/19 03:45:56;;;;;;;28.20;14.85;;;3.40;99.90;;;;;;4994783;28;20027;-80
2020/12/19 03:48:22;;;;;;;29.63;15.02;;;3.40;99.90;;;;;;4994168;28;20033;-80
2020/12/19 03:50:48;;;;;;;35.85;16.08;;;3.40;99.90;;;;;;4994373;28;20034;-80
2020/12/19 03:53:14;;;;;;;30.75;15.45;;;3.40;99.90;;;;;;4994595;28;20027;-80
2020/12/19 03:55:39;;;;;;;36.10;15.40;;;3.40;99.90;;;;;;4994345;28;20026;-80
2020/12/19 03:58:05;;;;;;;38.35;17.30;;;3.40;99.90;;;;;;4977459;28;20030;-80
2020/12/19 04:00:31;;;;;;;30.52;15.57;;;3.40;99.90;;;;;;4994816;28;20829;-80
2020/12/19 04:02:57;;;;;;;32.25;15.80;;;3.40;99.90;;;;;;4994546;28;20022;-80
2020/12/19 04:05:22;;;;;;;32.80;15.23;;;3.40;99.90;;;;;;4994346;28;20022;-80
2020/12/19 04:07:48;;;;;;;29.05;15.35;;;3.40;99.90;;;;;;4994299;28;20035;-80
2020/12/19 04:10:14;;;;;;;30.88;15.93;;;3.50;99.90;;;;;;4994477;28;20030;-80
2020/12/19 04:12:40;;;;;;;31.13;15.70;;;3.40;99.90;;;;;;4993914;28;20365;-81
2020/12/19 04:15:08;;;;;;;27.70;14.07;;;3.50;99.90;;;;;;4994334;28;20038;-80
2020/12/19 04:17:34;;;;;;;29.52;14.93;;;3.50;99.90;;;;;;4994072;28;20077;-80
2020/12/19 04:20:00;;;;;;;32.63;15.20;;;3.50;99.90;;;;;;4993778;28;20027;-80
2020/12/19 04:22:25;;;;;;;28.63;13.93;;;3.50;99.90;;;;;;4994446;28;20029;-80
2020/12/19 04:24:51;;;;;;;29.92;14.30;;;3.50;99.90;;;;;;4994195;28;20022;-78
2020/12/19 04:27:17;;;;;;;31.00;14.60;;;3.50;99.90;;;;;;4994379;28;20027;-80
2020/12/19 04:29:43;;;;;;;31.15;13.98;;;3.50;99.90;;;;;;4994348;28;20109;-80
2020/12/19 04:32:09;;;;;;;29.35;14.25;;;3.60;99.90;;;;;;4993581;28;20439;-80
2020/12/19 04:34:35;;;;;;;31.88;15.07;;;3.50;99.90;;;;;;4993695;28;20054;-81
2020/12/19 04:37:01;;;;;;;33.50;16.15;;;3.50;99.90;;;;;;4992976;28;20030;-81
2020/12/19 04:39:27;;;;;;;32.25;15.18;;;3.50;99.90;;;;;;4993530;28;20026;-81
2020/12/19 04:41:52;;;;;;;32.83;15.80;;;3.60;99.90;;;;;;4993452;28;20097;-81
2020/12/19 04:44:20;;;;;;;29.35;14.50;;;3.60;99.90;;;;;;4993252;28;20535;-80
2020/12/19 04:46:46;;;;;;;35.63;15.32;;;3.60;99.90;;;;;;4993478;28;20125;-81
2020/12/19 04:49:12;;;;;;;31.15;15.40;;;3.60;99.90;;;;;;4993210;28;20035;-81
2020/12/19 04:51:38;;;;;;;33.83;15.48;;;3.60;99.90;;;;;;4994076;28;20038;-80
2020/12/19 04:54:05;;;;;;;36.30;17.15;;;3.60;99.90;;;;;;4994509;28;20035;-80
2020/12/19 04:56:31;;;;;;;37.95;16.92;;;3.60;99.90;;;;;;4993231;28;20460;-80
2020/12/19 04:59:00;;;;;;;34.45;16.25;;;3.60;99.90;;;;;;4976732;28;20388;-78
2020/12/19 05:01:26;;;;;;;36.80;16.48;;;3.60;99.90;;;;;;4995580;28;20034;-79
2020/12/19 05:03:52;;;;;;;39.53;17.70;;;3.60;99.90;;;;;;4994486;28;20030;-80
2020/12/19 05:06:28;;;;;;;37.22;16.10;;;3.60;99.90;;;;;;5015301;28;20077;-80
2020/12/19 05:08:56;;;;;;;38.15;16.88;;;3.50;99.90;;;;;;5012115;28;20026;-81
2020/12/19 05:11:24;;;;;;;37.55;18.60;;;3.60;99.90;;;;;;4999497;28;20118;-81
2020/12/19 05:13:50;;;;;;;34.50;16.83;;;3.60;99.90;;;;;;4994329;28;20054;-81
2020/12/19 05:16:18;;;;;;;33.15;16.92;;;3.50;99.90;;;;;;4994034;28;20105;-81
2020/12/19 05:18:43;;;;;;;30.05;15.32;;;3.50;99.90;;;;;;4993783;28;20022;-81
2020/12/19 05:21:11;;;;;;;33.38;16.90;;;3.50;99.90;;;;;;4992124;28;20034;-81
2020/12/19 05:23:39;;;;;;;37.30;17.60;;;3.60;99.90;;;;;;4993193;28;20054;-81
2020/12/19 05:26:06;;;;;;;36.03;16.00;;;3.60;99.90;;;;;;4993120;28;20456;-81
2020/12/19 05:28:40;;;;;;;41.47;17.67;;;3.50;99.90;;;;;;4993539;28;20469;-81
2020/12/19 05:31:06;;;;;;;36.65;17.05;;;3.60;99.90;;;;;;4993257;28;20022;-80
2020/12/19 05:33:51;;;;;;;43.40;21.02;;;3.60;99.90;;;;;;4991792;28;20037;-81
2020/12/19 05:36:21;;;;;;;40.72;18.55;;;3.60;99.90;;;;;;4993113;28;20038;-82
2020/12/19 05:38:47;;;;;;;35.05;16.27;;;3.60;99.90;;;;;;4993306;28;20034;-80
2020/12/19 05:41:23;;;;;;;44.38;16.90;;;3.60;99.90;;;;;;4992004;28;20026;-82
2020/12/19 05:43:49;;;;;;;39.25;17.25;;;3.60;99.90;;;;;;4993607;28;20384;-83
2020/12/19 05:46:28;;;;;;;37.65;17.52;;;3.60;99.90;;;;;;4993197;28;20026;-81
2020/12/19 05:48:55;;;;;;;38.85;17.27;;;3.60;99.90;;;;;;4996311;28;20476;-82
2020/12/19 05:51:21;;;;;;;35.58;16.83;;;3.60;99.90;;;;;;4997137;28;20022;-80
2020/12/19 05:53:51;;;;;;;38.95;17.05;;;3.60;99.90;;;;;;4996564;28;20180;-80
2020/12/19 05:56:22;;;;;;;48.15;17.55;;;3.60;99.90;;;;;;4996914;28;20026;-81
2020/12/19 05:58:51;;;;;;;40.60;18.27;;;3.60;99.90;;;;;;4996964;28;20026;-81
2020/12/19 06:01:19;;;;;;;37.70;17.20;;;3.60;99.90;;;;;;4996569;28;20027;-83
2020/12/19 06:03:47;;;;;;;43.20;17.98;;;3.60;99.90;;;;;;4996322;28;20026;-81
2020/12/19 06:06:13;;;;;;;38.17;17.23;;;3.70;99.90;;;;;;4996579;28;20025;-81
2020/12/19 06:08:40;;;;;;;37.58;17.33;;;3.60;99.90;;;;;;4978824;28;20033;-81
2020/12/19 06:11:13;;;;;;;40.50;18.10;;;3.70;99.90;;;;;;4996063;28;20162;-81
2020/12/19 06:13:41;;;;;;;37.47;17.60;;;3.70;99.90;;;;;;4995920;28;20481;-82
2020/12/19 06:16:16;;;;;;;37.17;16.85;;;3.70;99.90;;;;;;4996286;28;20143;-80
2020/12/19 06:18:48;;;;;;;36.53;16.95;;;3.70;99.90;;;;;;4996296;28;20105;-82
2020/12/19 06:21:14;;;;;;;44.93;19.53;;;3.70;99.90;;;;;;4996474;28;20029;-81
2020/12/19 06:23:41;;;;;;;37.53;16.42;;;3.70;99.90;;;;;;4996276;28;20033;-82
2020/12/19 06:26:07;;;;;;;37.42;17.23;;;3.70;99.90;;;;;;4996027;28;20023;-83
2020/12/19 06:28:39;;;;;;;44.67;18.13;;;3.80;99.90;;;;;;4995995;28;20026;-84
2020/12/19 06:31:07;;;;;;;39.08;18.70;;;3.80;99.90;;;;;;4996301;28;20026;-83
2020/12/19 06:33:38;;;;;;;42.28;18.17;;;3.80;99.90;;;;;;4994884;28;20033;-83
2020/12/19 06:36:15;;;;;;;43.15;16.58;;;3.80;99.90;;;;;;4995377;28;20551;-82
2020/12/19 06:38:43;;;;;;;41.92;19.25;;;3.80;99.90;;;;;;4995021;28;20030;-81
2020/12/19 06:41:09;;;;;;;38.88;17.33;;;3.80;99.90;;;;;;4995406;28;20031;-81
2020/12/19 06:43:35;;;;;;;39.92;18.95;;;3.80;99.90;;;;;;4994975;28;20018;-81
2020/12/19 06:46:01;;;;;;;42.08;18.48;;;3.80;99.90;;;;;;4995112;28;20085;-82
2020/12/19 06:48:34;;;;;;;42.38;19.65;;;3.90;99.90;;;;;;4995021;28;20026;-81
2020/12/19 06:51:03;;;;;;;41.85;18.30;;;3.90;99.90;;;;;;4994344;28;20096;-83
2020/12/19 06:53:31;;;;;;;45.28;18.67;;;3.90;99.90;;;;;;4994672;28;20022;-83
2020/12/19 06:55:58;;;;;;;52.13;23.80;;;3.90;99.90;;;;;;4992914;28;20524;-82
2020/12/19 06:58:32;;;;;;;60.10;22.50;;;4.00;99.90;;;;;;4994116;28;20053;-82
2020/12/19 07:00:58;;;;;;;47.85;20.08;;;4.00;99.90;;;;;;4995047;28;20117;-83
2020/12/19 07:03:36;;;;;;;49.00;19.92;;;4.00;99.90;;;;;;4993378;28;20143;-81
2020/12/19 07:06:16;;;;;;;53.92;19.38;;;4.00;99.90;;;;;;4994645;28;20892;-80
2020/12/19 07:08:43;;;;;;;46.40;19.88;;;4.00;99.90;;;;;;4994894;28;20019;-82
2020/12/19 07:11:38;;;;;;;51.28;21.15;;;4.00;99.90;;;;;;4994231;28;20117;-82
2020/12/19 07:14:13;;;;;;;49.60;21.92;;;4.10;99.90;;;;;;4993451;28;20546;-81
2020/12/19 07:16:46;;;;;;;48.08;19.77;;;4.10;99.90;;;;;;4994456;28;20037;-82
2020/12/19 07:19:18;;;;;;;52.50;20.77;;;4.10;99.90;;;;;;4993319;28;20022;-83
2020/12/19 07:21:45;;;;;;;46.55;20.45;;;4.20;99.90;;;;;;4994915;28;20026;-83
2020/12/19 07:24:11;;;;;;;59.55;24.33;;;4.20;99.90;;;;;;4994221;28;20077;-82
2020/12/19 07:26:37;;;;;;;59.42;23.63;;;4.20;99.90;;;;;;4982386;28;20027;-82
2020/12/19 07:29:12;;;;;;;64.07;25.17;;;4.20;99.90;;;;;;4984259;28;20019;-74
2020/12/19 07:31:42;;;;;;;54.22;21.23;;;4.20;99.90;;;;;;4983223;28;20551;-75
2020/12/19 07:34:08;;;;;;;54.60;23.83;;;4.30;99.90;;;;;;4983437;28;20039;-74
2020/12/19 07:36:40;;;;;;;63.60;25.02;;;4.30;99.90;;;;;;4981129;28;20026;-74
2020/12/19 07:39:06;;;;;;;53.92;21.95;;;4.30;99.90;;;;;;4981782;28;20011;-76
2020/12/19 07:41:34;;;;;;;56.60;22.90;;;4.30;99.90;;;;;;4982823;28;20022;-75
2020/12/19 07:44:17;;;;;;;59.00;23.65;;;4.40;99.90;;;;;;4981872;28;20019;-75
2020/12/19 07:46:52;;;;;;;61.63;26.17;;;4.40;99.90;;;;;;4982825;28;20053;-75
2020/12/19 07:49:28;;;;;;;64.30;26.58;;;4.40;99.90;;;;;;4982814;28;20030;-74
2020/12/19 07:52:04;;;;;;;61.22;24.63;;;4.40;99.90;;;;;;4977904;28;20023;-73
2020/12/19 07:54:30;;;;;;;69.38;26.52;;;4.50;99.90;;;;;;4979184;28;20031;-74
2020/12/19 07:56:56;;;;;;;65.00;26.17;;;4.50;99.90;;;;;;4981987;28;20030;-74
2020/12/19 07:59:23;;;;;;;70.70;27.88;;;4.40;99.90;;;;;;4983057;28;20034;-74
2020/12/19 08:01:49;;;;;;;64.13;26.58;;;4.50;99.90;;;;;;4981287;28;20121;-74
2020/12/19 08:04:14;;;;;;;57.25;24.20;;;4.50;99.90;;;;;;4964167;28;20101;-74
2020/12/19 08:06:45;;;;;;;60.63;25.15;;;4.40;99.90;;;;;;4982481;28;20090;-73
2020/12/19 08:09:16;;;;;;;53.08;22.80;;;4.50;99.90;;;;;;4978979;28;20121;-73
2020/12/19 08:11:46;;;;;;;56.75;25.60;;;4.50;99.90;;;;;;4980584;28;20081;-75
2020/12/19 08:14:17;;;;;;;63.10;27.67;;;4.50;99.90;;;;;;4980679;28;20059;-76
2020/12/19 08:16:45;;;;;;;63.03;25.55;;;4.50;99.90;;;;;;4981095;28;20471;-74
2020/12/19 08:19:14;;;;;;;62.50;24.95;;;4.50;99.90;;;;;;4979021;28;20092;-75
2020/12/19 08:21:43;;;;;;;63.60;24.75;;;4.50;99.90;;;;;;4982860;28;20018;-74
2020/12/19 08:24:10;;;;;;;66.25;24.63;;;4.50;99.90;;;;;;4981175;28;20098;-74
2020/12/19 08:26:36;;;;;;;61.70;25.13;;;4.50;99.90;;;;;;4980487;28;20018;-74
2020/12/19 08:29:07;;;;;;;68.93;26.77;;;4.50;99.90;;;;;;4981292;28;20018;-75
2020/12/19 08:31:38;;;;;;;60.08;23.88;;;4.50;99.90;;;;;;4981570;28;20443;-74
2020/12/19 08:34:09;;;;;;;59.15;23.88;;;4.50;99.90;;;;;;4977675;28;20026;-74
2020/12/19 08:36:35;;;;;;;57.25;24.65;;;4.60;99.90;;;;;;4980065;28;20380;-76
2020/12/19 08:39:18;;;;;;;64.07;27.30;;;4.60;99.90;;;;;;4981723;28;20018;-73
2020/12/19 08:41:44;;;;;;;57.55;24.67;;;4.60;99.90;;;;;;4977132;28;20138;-75
2020/12/19 08:44:24;;;;;;;64.35;26.52;;;4.70;99.90;;;;;;4980401;28;20026;-75
2020/12/19 08:47:35;;;;;;;70.90;27.23;;;4.60;99.90;;;;;;4979294;28;20027;-74
2020/12/19 08:50:03;;;;;;;71.75;30.13;;;4.70;99.90;;;;;;4981298;28;20028;-76
2020/12/19 08:52:28;;;;;;;60.90;25.85;;;4.70;99.90;;;;;;4980159;28;20341;-75
2020/12/19 08:55:00;;;;;;;57.95;25.23;;;4.70;99.90;;;;;;4980130;28;20026;-75
2020/12/19 08:57:33;;;;;;;56.33;24.42;;;4.70;99.90;;;;;;4977925;28;20078;-74
2020/12/19 09:00:14;;;;;;;59.90;24.90;;;4.80;99.90;;;;;;4977885;28;20481;-77
2020/12/19 09:02:41;;;;;;;53.80;24.30;;;4.80;99.90;;;;;;4979566;28;20019;-75
2020/12/19 09:05:08;;;;;;;58.05;26.23;;;4.80;99.90;;;;;;4981385;28;20380;-75
2020/12/19 09:07:35;;;;;;;57.83;26.58;;;4.80;99.90;;;;;;4980912;28;20394;-77
2020/12/19 09:10:20;;;;;;;56.78;24.83;;;4.90;99.90;;;;;;4979976;28;20026;-76
2020/12/19 09:12:46;;;;;;;51.92;23.42;;;4.90;99.90;;;;;;4977647;28;20100;-75
2020/12/19 09:15:18;;;;;;;48.35;22.30;;;4.90;99.90;;;;;;4980578;28;20041;-76
2020/12/19 09:17:44;;;;;;;51.67;22.77;;;4.90;99.90;;;;;;4975613;28;20078;-76
2020/12/19 09:20:10;;;;;;;45.95;22.85;;;4.90;99.90;;;;;;4980585;28;20026;-76
2020/12/19 09:22:35;;;;;;;46.15;20.45;;;5.00;99.90;;;;;;4984107;28;20054;-76
2020/12/19 09:25:01;;;;;;;45.20;19.77;;;4.90;99.90;;;;;;4985870;28;20025;-76
2020/12/19 09:27:27;;;;;;;49.53;21.27;;;5.00;99.90;;;;;;4986633;28;20105;-76
2020/12/19 09:29:52;;;;;;;50.22;22.17;;;5.00;99.90;;;;;;4987428;28;20821;-77
2020/12/19 09:32:18;;;;;;;45.13;21.02;;;5.00;99.90;;;;;;4986029;28;20035;-77
2020/12/19 09:34:44;;;;;;;43.97;21.13;;;5.00;99.90;;;;;;4982524;28;20445;-76
2020/12/19 09:37:10;;;;;;;45.97;20.45;;;5.00;99.90;;;;;;4986282;28;20433;-75
2020/12/19 09:39:35;;;;;;;39.63;18.58;;;5.00;99.90;;;;;;4968906;28;20109;-77
2020/12/19 09:42:01;;;;;;;43.63;21.33;;;5.00;99.90;;;;;;4987820;28;20101;-77
2020/12/19 09:44:27;;;;;;;48.25;21.67;;;5.00;99.90;;;;;;4985914;28;20376;-75
2020/12/19 09:46:52;;;;;;;45.60;19.92;;;5.00;99.90;;;;;;4986218;28;20033;-75
2020/12/19 09:49:18;;;;;;;42.50;21.60;;;5.10;99.90;;;;;;4987520;28;20040;-76
2020/12/19 09:51:44;;;;;;;44.63;21.48;;;5.10;99.90;;;;;;4983049;28;20019;-75
2020/12/19 09:54:09;;;;;;;43.70;19.95;;;5.10;99.90;;;;;;4986342;28;20129;-76
2020/12/19 09:56:39;;;;;;;43.35;21.88;;;5.10;99.90;;;;;;4986901;28;20029;-75
2020/12/19 09:59:05;;;;;;;46.17;21.05;;;5.10;99.90;;;;;;4983417;28;20026;-77
2020/12/19 10:01:31;;;;;;;49.13;21.42;;;5.10;99.90;;;;;;4986343;28;20033;-76
2020/12/19 10:03:57;;;;;;;42.90;20.27;;;5.10;99.90;;;;;;4969170;28;20027;-78
2020/12/19 10:06:23;;;;;;;42.88;20.35;;;5.10;99.90;;;;;;4985536;28;20102;-79
2020/12/19 10:08:48;;;;;;;44.10;20.85;;;5.20;99.90;;;;;;4986691;28;20044;-76
2020/12/19 10:11:20;;;;;;;42.00;19.15;;;5.20;99.90;;;;;;4968184;28;20482;-76
2020/12/19 10:13:46;;;;;;;43.22;20.65;;;5.20;99.90;;;;;;4982084;28;20058;-75
2020/12/19 10:16:12;;;;;;;45.28;24.40;;;5.20;99.90;;;;;;4986174;28;20440;-73
2020/12/19 10:18:37;;;;;;;45.33;20.42;;;5.20;99.90;;;;;;4987340;28;20025;-76
2020/12/19 10:21:07;;;;;;;43.33;21.55;;;5.30;99.90;;;;;;4985406;28;20102;-73
2020/12/19 10:23:34;;;;;;;40.80;19.95;;;5.30;99.90;;;;;;4986705;28;20387;-78
2020/12/19 10:26:02;;;;;;;41.85;19.45;;;5.30;99.90;;;;;;4986277;28;20025;-74
2020/12/19 10:28:28;;;;;;;45.97;21.85;;;5.30;99.90;;;;;;4986237;28;20453;-76
2020/12/19 10:30:54;;;;;;;42.85;20.60;;;5.30;99.90;;;;;;4968386;28;20030;-74
2020/12/19 10:33:20;;;;;;;39.50;20.10;;;5.40;99.90;;;;;;4986154;28;20027;-74
2020/12/19 10:35:49;;;;;;;40.65;19.73;;;5.30;99.90;;;;;;4980940;28;20023;-79
2020/12/19 10:38:14;;;;;;;41.47;20.83;;;5.30;99.90;;;;;;4983008;28;20054;-81
2020/12/19 10:40:40;;;;;;;44.47;21.92;;;5.30;99.90;;;;;;4992602;28;20279;-78
2020/12/19 10:43:06;;;;;;;42.70;18.77;;;5.40;99.90;;;;;;4993835;28;20023;-78
2020/12/19 10:45:31;;;;;;;43.42;22.02;;;5.40;99.90;;;;;;4992142;28;20373;-79
2020/12/19 10:47:59;;;;;;;42.58;21.02;;;5.40;99.90;;;;;;4993889;28;20034;-79
2020/12/19 10:50:25;;;;;;;43.08;21.17;;;5.40;99.90;;;;;;4993942;28;20388;-79
2020/12/19 10:52:51;;;;;;;42.20;20.17;;;5.40;99.90;;;;;;4993944;28;20034;-79
2020/12/19 10:55:16;;;;;;;40.08;20.67;;;5.40;99.90;;;;;;4993726;28;20037;-80
2020/12/19 10:57:42;;;;;;;37.83;19.10;;;5.40;99.90;;;;;;4992930;28;20026;-80
2020/12/19 11:00:08;;;;;;;108.70;58.22;;;5.40;99.90;;;;;;4993113;28;20077;-78
2020/12/19 11:02:36;;;;;;;70.13;34.65;;;5.40;99.90;;;;;;4993358;28;20380;-74
2020/12/19 11:05:02;;;;;;;55.95;25.02;;;5.40;99.90;;;;;;4975727;28;20061;-74
2020/12/19 11:07:28;;;;;;;49.08;23.23;;;5.30;99.90;;;;;;4975904;28;20057;-74
2020/12/19 11:09:53;;;;;;;48.08;23.63;;;5.30;99.90;;;;;;4992651;28;20038;-74
2020/12/19 11:12:19;;;;;;;45.00;21.55;;;5.30;99.90;;;;;;4993569;28;20377;-74
2020/12/19 11:14:45;;;;;;;45.47;20.40;;;5.30;99.90;;;;;;4993504;28;20081;-75
2020/12/19 11:17:10;;;;;;;45.58;21.63;;;5.30;99.90;;;;;;4991130;28;20045;-81
2020/12/19 11:19:37;;;;;;;51.63;22.27;;;5.30;99.90;;;;;;4994071;28;20066;-82
2020/12/19 11:22:03;;;;;;;46.40;21.23;;;5.30;99.90;;;;;;4996613;28;20021;-83
2020/12/19 11:24:29;;;;;;;45.25;22.13;;;5.20;99.90;;;;;;4996244;28;20084;-83
2020/12/19 11:26:54;;;;;;;47.35;22.40;;;5.20;99.90;;;;;;4995822;28;20373;-84
2020/12/19 11:29:20;;;;;;;51.42;24.50;;;5.20;99.90;;;;;;4979511;28;20034;-82
2020/12/19 11:31:48;;;;;;;49.05;22.33;;;5.20;99.90;;;;;;4995493;28;20818;-82
2020/12/19 11:34:13;;;;;;;47.50;22.38;;;5.20;99.90;;;;;;4978791;28;20033;-85
2020/12/19 11:36:40;;;;;;;52.38;23.52;;;5.20;99.90;;;;;;4996155;28;20030;-84
2020/12/19 11:39:10;;;;;;;50.67;24.55;;;5.20;99.90;;;;;;4999043;28;20477;-85
2020/12/19 11:41:37;;;;;;;54.88;26.05;;;5.10;99.90;;;;;;5001220;28;20022;-85
2020/12/19 11:44:03;;;;;;;54.80;27.08;;;5.10;99.90;;;;;;4995087;28;20022;-85
2020/12/19 11:46:29;;;;;;;49.50;23.02;;;5.20;99.90;;;;;;4996305;28;20030;-83
2020/12/19 11:48:55;;;;;;;53.05;24.65;;;5.10;99.90;;;;;;4996576;28;20084;-85
2020/12/19 11:51:31;;;;;;;56.63;27.83;;;5.10;99.90;;;;;;4996389;28;20057;-85
2020/12/19 11:54:01;;;;;;;55.20;25.77;;;5.10;99.90;;;;;;4996218;28;20026;-84
2020/12/19 11:56:29;;;;;;;53.78;24.52;;;5.10;99.90;;;;;;4996817;28;20049;-85
2020/12/19 11:58:55;;;;;;;48.63;24.45;;;5.10;99.90;;;;;;4995402;28;20023;-85
2020/12/19 12:01:28;;;;;;;55.38;26.02;;;5.10;99.90;;;;;;4995396;28;20041;-83
2020/12/19 12:03:54;;;;;;;50.97;24.23;;;5.10;99.90;;;;;;4995998;28;20428;-84
2020/12/19 12:06:46;;;;;;;48.38;23.83;;;5.10;99.90;;;;;;4996825;28;20042;-83
2020/12/19 12:09:12;;;;;;;49.90;24.00;;;5.10;99.90;;;;;;4994282;28;20038;-85
2020/12/19 12:11:38;;;;;;;51.40;24.75;;;5.10;99.90;;;;;;4994252;28;20030;-84
2020/12/19 12:14:04;;;;;;;46.08;24.20;;;5.20;99.90;;;;;;4995378;28;20050;-85
2020/12/19 12:16:30;;;;;;;49.08;24.73;;;5.20;99.90;;;;;;4994526;28;20089;-83
2020/12/19 12:18:57;;;;;;;52.22;26.55;;;5.20;99.90;;;;;;4992569;28;20141;-82
2020/12/19 12:21:23;;;;;;;52.10;24.08;;;5.20;99.90;;;;;;4996285;28;20029;-84
2020/12/19 12:23:49;;;;;;;48.80;24.85;;;5.20;99.90;;;;;;4997665;28;20105;-82
2020/12/19 12:26:22;;;;;;;49.70;24.73;;;5.20;99.90;;;;;;4996094;28;20077;-83
2020/12/19 12:28:47;;;;;;;51.90;23.42;;;5.20;99.90;;;;;;4992734;28;20491;-85
2020/12/19 12:31:18;;;;;;;50.78;26.00;;;5.20;99.90;;;;;;4992322;28;20034;-84
2020/12/19 12:33:44;;;;;;;52.08;27.13;;;5.20;99.90;;;;;;4992687;28;20022;-82
2020/12/19 12:36:10;;;;;;;65.10;32.08;;;5.20;99.90;;;;;;4992736;28;20065;-83
2020/12/19 12:38:38;;;;;;;50.30;26.73;;;5.20;99.90;;;;;;4992658;28;20037;-84
2020/12/19 12:41:06;;;;;;;53.53;27.30;;;5.20;99.90;;;;;;4993361;28;20484;-73